sensor_id;sensor_type;location;lat;lon;timestamp;P1;durP1;ratioP1;P2;durP2;ratioP2
68144;SDS011;55400;51.824;-0.196;2022-11-13T00:00:54;35.08;;;17.02;;
68144;SDS011;55400;51.824;-0.196;2022-11-13T00:03:20;61.33;;;17.75;;
68144;SDS011;55400;51.824;-0.196;2022-11-13T00:05:45;57.35;;;18.25;;
68144;SDS011;55400;51.824;-0.196;2022-11-13T00:08:11;98.32;;;19.15;;
68144;SDS011;55400;51.824;-0.196;2022-11-13T00:10:36;44.83;;;17.92;;
68144;SDS011;55400;51.824;-0.196;2022-11-13T00:13:02;93.18;;;20.60;;
68144;SDS011;55400;51.824;-0.196;2022-11-13T00:15:27;65.72;;;17.50;;
68144;SDS011;55400;51.824;-0.196;2022-11-13T00:17:53;81.85;;;18.63;;
68144;SDS011;55400;51.824;-0.196;2022-11-13T00:20:18;25.05;;;16.92;;
68144;SDS011;55400;51.824;-0.196;2022-11-13T00:22:44;91.88;;;18.85;;
68144;SDS011;55400;51.824;-0.196;2022-11-13T00:25:10;79.10;;;19.17;;
68144;SDS011;55400;51.824;-0.196;2022-11-13T00:27:35;99.32;;;19.38;;
68144;SDS011;55400;51.824;-0.196;2022-11-13T00:30:01;41.65;;;17.77;;
68144;SDS011;55400;51.824;-0.196;2022-11-13T00:32:26;74.38;;;17.90;;
68144;SDS011;55400;51.824;-0.196;2022-11-13T00:34:52;118.10;;;19.98;;
68144;SDS011;55400;51.824;-0.196;2022-11-13T00:37:17;95.22;;;18.38;;
68144;SDS011;55400;51.824;-0.196;2022-11-13T00:39:43;56.60;;;19.98;;
68144;SDS011;55400;51.824;-0.196;2022-11-13T00:42:09;31.13;;;18.65;;
68144;SDS011;55400;51.824;-0.196;2022-11-13T00:44:34;61.53;;;18.23;;
68144;SDS011;55400;51.824;-0.196;2022-11-13T00:47:00;31.13;;;17.48;;
68144;SDS011;55400;51.824;-0.196;2022-11-13T00:49:25;41.67;;;17.08;;
68144;SDS011;55400;51.824;-0.196;2022-11-13T00:51:51;37.88;;;16.45;;
68144;SDS011;55400;51.824;-0.196;2022-11-13T00:54:16;44.90;;;19.30;;
68144;SDS011;55400;51.824;-0.196;2022-11-13T00:56:42;77.90;;;17.27;;
68144;SDS011;55400;51.824;-0.196;2022-11-13T00:59:07;38.10;;;19.02;;
68144;SDS011;55400;51.824;-0.196;2022-11-13T01:01:32;42.97;;;17.33;;
68144;SDS011;55400;51.824;-0.196;2022-11-13T01:03:58;29.75;;;17.17;;
68144;SDS011;55400;51.824;-0.196;2022-11-13T01:06:25;86.43;;;20.80;;
68144;SDS011;55400;51.824;-0.196;2022-11-13T01:08:56;70.85;;;17.40;;
68144;SDS011;55400;51.824;-0.196;2022-11-13T01:11:24;60.20;;;18.67;;
68144;SDS011;55400;51.824;-0.196;2022-11-13T01:13:51;34.65;;;18.95;;
68144;SDS011;55400;51.824;-0.196;2022-11-13T01:16:18;39.42;;;18.60;;
68144;SDS011;55400;51.824;-0.196;2022-11-13T01:21:12;37.40;;;15.82;;
68144;SDS011;55400;51.824;-0.196;2022-11-13T01:23:38;35.10;;;18.10;;
68144;SDS011;55400;51.824;-0.196;2022-11-13T01:28:37;52.10;;;19.50;;
68144;SDS011;55400;51.824;-0.196;2022-11-13T01:31:04;39.25;;;19.15;;
68144;SDS011;55400;51.824;-0.196;2022-11-13T01:33:30;34.25;;;17.73;;
68144;SDS011;55400;51.824;-0.196;2022-11-13T01:36:00;31.40;;;14.32;;
68144;SDS011;55400;51.824;-0.196;2022-11-13T01:38:29;51.08;;;19.10;;
68144;SDS011;55400;51.824;-0.196;2022-11-13T01:40:55;69.72;;;17.55;;
68144;SDS011;55400;51.824;-0.196;2022-11-13T01:51:32;40.13;;;17.88;;
68144;SDS011;55400;51.824;-0.196;2022-11-13T01:54:02;39.75;;;17.83;;
68144;SDS011;55400;51.824;-0.196;2022-11-13T01:56:31;68.60;;;19.42;;
68144;SDS011;55400;51.824;-0.196;2022-11-13T01:58:57;146.75;;;20.30;;
68144;SDS011;55400;51.824;-0.196;2022-11-13T02:01:37;45.33;;;18.10;;
68144;SDS011;55400;51.824;-0.196;2022-11-13T02:04:03;86.07;;;18.60;;
68144;SDS011;55400;51.824;-0.196;2022-11-13T02:06:42;97.22;;;18.20;;
68144;SDS011;55400;51.824;-0.196;2022-11-13T02:09:10;84.50;;;19.60;;
68144;SDS011;55400;51.824;-0.196;2022-11-13T02:11:37;87.53;;;19.60;;
68144;SDS011;55400;51.824;-0.196;2022-11-13T02:14:03;59.80;;;19.63;;
68144;SDS011;55400;51.824;-0.196;2022-11-13T02:16:31;44.20;;;19.63;;
68144;SDS011;55400;51.824;-0.196;2022-11-13T02:18:58;67.72;;;20.02;;
68144;SDS011;55400;51.824;-0.196;2022-11-13T02:21:29;41.45;;;20.05;;
68144;SDS011;55400;51.824;-0.196;2022-11-13T02:26:48;120.15;;;21.35;;
68144;SDS011;55400;51.824;-0.196;2022-11-13T02:29:16;25.00;;;15.10;;
68144;SDS011;55400;51.824;-0.196;2022-11-13T02:31:41;58.00;;;19.17;;
68144;SDS011;55400;51.824;-0.196;2022-11-13T02:34:06;43.05;;;17.83;;
68144;SDS011;55400;51.824;-0.196;2022-11-13T02:36:32;41.30;;;18.60;;
68144;SDS011;55400;51.824;-0.196;2022-11-13T02:39:00;62.05;;;20.20;;
68144;SDS011;55400;51.824;-0.196;2022-11-13T02:41:29;57.20;;;17.95;;
68144;SDS011;55400;51.824;-0.196;2022-11-13T02:43:54;34.67;;;18.38;;
68144;SDS011;55400;51.824;-0.196;2022-11-13T02:46:20;42.35;;;19.13;;
68144;SDS011;55400;51.824;-0.196;2022-11-13T02:48:45;82.63;;;19.60;;
68144;SDS011;55400;51.824;-0.196;2022-11-13T02:51:10;75.53;;;18.67;;
68144;SDS011;55400;51.824;-0.196;2022-11-13T02:53:36;57.25;;;16.58;;
68144;SDS011;55400;51.824;-0.196;2022-11-13T02:56:01;48.10;;;17.38;;
68144;SDS011;55400;51.824;-0.196;2022-11-13T02:58:27;36.72;;;16.35;;
68144;SDS011;55400;51.824;-0.196;2022-11-13T03:00:52;74.20;;;18.20;;
68144;SDS011;55400;51.824;-0.196;2022-11-13T03:03:18;103.40;;;19.88;;
68144;SDS011;55400;51.824;-0.196;2022-11-13T03:05:46;38.13;;;17.75;;
68144;SDS011;55400;51.824;-0.196;2022-11-13T03:08:13;49.50;;;18.67;;
68144;SDS011;55400;51.824;-0.196;2022-11-13T03:10:38;80.70;;;19.55;;
68144;SDS011;55400;51.824;-0.196;2022-11-13T03:13:03;52.85;;;17.17;;
68144;SDS011;55400;51.824;-0.196;2022-11-13T03:15:29;46.42;;;18.20;;
68144;SDS011;55400;51.824;-0.196;2022-11-13T03:17:54;34.38;;;17.15;;
68144;SDS011;55400;51.824;-0.196;2022-11-13T03:20:20;66.70;;;18.80;;
68144;SDS011;55400;51.824;-0.196;2022-11-13T03:22:45;30.90;;;16.15;;
68144;SDS011;55400;51.824;-0.196;2022-11-13T03:25:10;70.95;;;17.90;;
68144;SDS011;55400;51.824;-0.196;2022-11-13T03:27:36;52.00;;;18.25;;
68144;SDS011;55400;51.824;-0.196;2022-11-13T03:30:01;42.63;;;17.23;;
68144;SDS011;55400;51.824;-0.196;2022-11-13T03:32:28;34.92;;;18.17;;
68144;SDS011;55400;51.824;-0.196;2022-11-13T03:34:53;40.53;;;17.48;;
68144;SDS011;55400;51.824;-0.196;2022-11-13T03:37:18;30.30;;;15.77;;
68144;SDS011;55400;51.824;-0.196;2022-11-13T03:39:44;49.70;;;18.67;;
68144;SDS011;55400;51.824;-0.196;2022-11-13T03:42:09;41.47;;;17.85;;
68144;SDS011;55400;51.824;-0.196;2022-11-13T03:44:35;38.38;;;19.20;;
68144;SDS011;55400;51.824;-0.196;2022-11-13T03:47:00;42.30;;;18.73;;
68144;SDS011;55400;51.824;-0.196;2022-11-13T03:49:26;37.55;;;19.02;;
68144;SDS011;55400;51.824;-0.196;2022-11-13T03:51:51;42.50;;;19.10;;
68144;SDS011;55400;51.824;-0.196;2022-11-13T03:54:16;110.60;;;18.15;;
68144;SDS011;55400;51.824;-0.196;2022-11-13T03:56:42;63.05;;;16.90;;
68144;SDS011;55400;51.824;-0.196;2022-11-13T03:59:07;156.82;;;18.73;;
68144;SDS011;55400;51.824;-0.196;2022-11-13T04:01:33;63.88;;;16.23;;
68144;SDS011;55400;51.824;-0.196;2022-11-13T04:03:58;84.93;;;15.00;;
68144;SDS011;55400;51.824;-0.196;2022-11-13T04:06:24;33.85;;;13.52;;
68144;SDS011;55400;51.824;-0.196;2022-11-13T04:08:49;48.92;;;14.68;;
68144;SDS011;55400;51.824;-0.196;2022-11-13T04:11:15;75.60;;;17.02;;
68144;SDS011;55400;51.824;-0.196;2022-11-13T04:13:40;36.63;;;13.85;;
68144;SDS011;55400;51.824;-0.196;2022-11-13T04:16:06;63.63;;;15.68;;
68144;SDS011;55400;51.824;-0.196;2022-11-13T04:18:31;29.27;;;14.93;;
68144;SDS011;55400;51.824;-0.196;2022-11-13T04:20:58;26.63;;;15.07;;
68144;SDS011;55400;51.824;-0.196;2022-11-13T04:23:27;31.80;;;16.10;;
68144;SDS011;55400;51.824;-0.196;2022-11-13T04:25:53;26.23;;;14.13;;
68144;SDS011;55400;51.824;-0.196;2022-11-13T04:28:19;57.20;;;14.25;;
68144;SDS011;55400;51.824;-0.196;2022-11-13T04:30:45;32.55;;;13.82;;
68144;SDS011;55400;51.824;-0.196;2022-11-13T04:33:10;85.45;;;14.23;;
68144;SDS011;55400;51.824;-0.196;2022-11-13T04:35:36;60.63;;;14.25;;
68144;SDS011;55400;51.824;-0.196;2022-11-13T04:38:01;41.50;;;12.77;;
68144;SDS011;55400;51.824;-0.196;2022-11-13T04:40:27;24.35;;;11.82;;
68144;SDS011;55400;51.824;-0.196;2022-11-13T04:42:52;62.80;;;13.18;;
68144;SDS011;55400;51.824;-0.196;2022-11-13T04:45:18;39.60;;;13.07;;
68144;SDS011;55400;51.824;-0.196;2022-11-13T04:47:46;34.88;;;13.38;;
68144;SDS011;55400;51.824;-0.196;2022-11-13T04:50:12;26.67;;;10.85;;
68144;SDS011;55400;51.824;-0.196;2022-11-13T04:52:38;26.20;;;12.57;;
68144;SDS011;55400;51.824;-0.196;2022-11-13T04:55:04;49.88;;;12.80;;
68144;SDS011;55400;51.824;-0.196;2022-11-13T04:57:31;37.15;;;14.23;;
68144;SDS011;55400;51.824;-0.196;2022-11-13T04:59:56;28.17;;;11.93;;
68144;SDS011;55400;51.824;-0.196;2022-11-13T05:02:22;26.10;;;11.60;;
68144;SDS011;55400;51.824;-0.196;2022-11-13T05:04:47;27.77;;;12.32;;
68144;SDS011;55400;51.824;-0.196;2022-11-13T05:07:13;35.50;;;13.10;;
68144;SDS011;55400;51.824;-0.196;2022-11-13T05:09:38;34.38;;;11.73;;
68144;SDS011;55400;51.824;-0.196;2022-11-13T05:12:04;40.78;;;11.98;;
68144;SDS011;55400;51.824;-0.196;2022-11-13T05:14:33;38.97;;;11.75;;
68144;SDS011;55400;51.824;-0.196;2022-11-13T05:16:59;21.55;;;10.75;;
68144;SDS011;55400;51.824;-0.196;2022-11-13T05:19:25;39.58;;;12.05;;
68144;SDS011;55400;51.824;-0.196;2022-11-13T05:21:50;40.38;;;10.68;;
68144;SDS011;55400;51.824;-0.196;2022-11-13T05:24:16;31.15;;;10.57;;
68144;SDS011;55400;51.824;-0.196;2022-11-13T05:26:41;75.95;;;11.73;;
68144;SDS011;55400;51.824;-0.196;2022-11-13T05:29:06;44.55;;;11.00;;
68144;SDS011;55400;51.824;-0.196;2022-11-13T05:31:32;28.25;;;11.98;;
68144;SDS011;55400;51.824;-0.196;2022-11-13T05:33:57;30.10;;;10.15;;
68144;SDS011;55400;51.824;-0.196;2022-11-13T05:36:22;33.25;;;10.75;;
68144;SDS011;55400;51.824;-0.196;2022-11-13T05:38:48;26.50;;;11.02;;
68144;SDS011;55400;51.824;-0.196;2022-11-13T05:41:18;42.80;;;9.45;;
68144;SDS011;55400;51.824;-0.196;2022-11-13T05:43:44;39.28;;;10.38;;
68144;SDS011;55400;51.824;-0.196;2022-11-13T05:48:46;49.67;;;11.63;;
68144;SDS011;55400;51.824;-0.196;2022-11-13T05:51:16;38.78;;;9.35;;
68144;SDS011;55400;51.824;-0.196;2022-11-13T05:53:44;30.38;;;10.70;;
68144;SDS011;55400;51.824;-0.196;2022-11-13T05:56:10;19.13;;;9.75;;
68144;SDS011;55400;51.824;-0.196;2022-11-13T06:01:11;48.72;;;10.77;;
68144;SDS011;55400;51.824;-0.196;2022-11-13T06:03:41;25.73;;;10.13;;
68144;SDS011;55400;51.824;-0.196;2022-11-13T06:06:07;21.45;;;9.68;;
68144;SDS011;55400;51.824;-0.196;2022-11-13T06:08:34;23.50;;;10.65;;
68144;SDS011;55400;51.824;-0.196;2022-11-13T06:11:04;30.67;;;9.70;;
68144;SDS011;55400;51.824;-0.196;2022-11-13T06:13:34;33.22;;;9.15;;
68144;SDS011;55400;51.824;-0.196;2022-11-13T06:16:03;15.35;;;8.95;;
68144;SDS011;55400;51.824;-0.196;2022-11-13T06:18:34;26.40;;;9.90;;
68144;SDS011;55400;51.824;-0.196;2022-11-13T06:21:04;56.90;;;10.43;;
68144;SDS011;55400;51.824;-0.196;2022-11-13T06:23:33;29.88;;;8.77;;
68144;SDS011;55400;51.824;-0.196;2022-11-13T06:26:09;44.83;;;9.25;;
68144;SDS011;55400;51.824;-0.196;2022-11-13T06:28:37;18.88;;;8.93;;
68144;SDS011;55400;51.824;-0.196;2022-11-13T06:31:07;17.33;;;8.57;;
68144;SDS011;55400;51.824;-0.196;2022-11-13T06:33:36;25.65;;;8.45;;
68144;SDS011;55400;51.824;-0.196;2022-11-13T06:36:03;23.50;;;8.98;;
68144;SDS011;55400;51.824;-0.196;2022-11-13T06:38:30;31.00;;;9.20;;
68144;SDS011;55400;51.824;-0.196;2022-11-13T06:40:57;20.63;;;8.32;;
68144;SDS011;55400;51.824;-0.196;2022-11-13T06:43:22;39.92;;;9.10;;
68144;SDS011;55400;51.824;-0.196;2022-11-13T06:45:47;21.75;;;9.77;;
68144;SDS011;55400;51.824;-0.196;2022-11-13T06:48:13;66.20;;;8.88;;
68144;SDS011;55400;51.824;-0.196;2022-11-13T06:50:38;54.65;;;9.15;;
68144;SDS011;55400;51.824;-0.196;2022-11-13T06:53:04;116.45;;;10.35;;
68144;SDS011;55400;51.824;-0.196;2022-11-13T06:55:29;16.75;;;7.55;;
68144;SDS011;55400;51.824;-0.196;2022-11-13T06:57:55;25.65;;;7.68;;
68144;SDS011;55400;51.824;-0.196;2022-11-13T07:00:20;89.63;;;9.20;;
68144;SDS011;55400;51.824;-0.196;2022-11-13T07:02:49;40.78;;;9.25;;
68144;SDS011;55400;51.824;-0.196;2022-11-13T07:05:15;18.67;;;8.18;;
68144;SDS011;55400;51.824;-0.196;2022-11-13T07:07:40;27.50;;;8.00;;
68144;SDS011;55400;51.824;-0.196;2022-11-13T07:10:06;34.05;;;6.90;;
68144;SDS011;55400;51.824;-0.196;2022-11-13T07:12:32;53.38;;;7.78;;
68144;SDS011;55400;51.824;-0.196;2022-11-13T07:14:57;23.85;;;7.55;;
68144;SDS011;55400;51.824;-0.196;2022-11-13T07:17:23;29.30;;;7.82;;
68144;SDS011;55400;51.824;-0.196;2022-11-13T07:19:48;22.60;;;7.03;;
68144;SDS011;55400;51.824;-0.196;2022-11-13T07:22:13;15.55;;;6.68;;
68144;SDS011;55400;51.824;-0.196;2022-11-13T07:24:39;35.80;;;6.55;;
68144;SDS011;55400;51.824;-0.196;2022-11-13T07:27:06;50.30;;;6.75;;
68144;SDS011;55400;51.824;-0.196;2022-11-13T07:29:32;18.95;;;7.90;;
68144;SDS011;55400;51.824;-0.196;2022-11-13T07:31:57;26.27;;;5.97;;
68144;SDS011;55400;51.824;-0.196;2022-11-13T07:34:23;42.28;;;5.88;;
68144;SDS011;55400;51.824;-0.196;2022-11-13T07:36:48;21.95;;;6.00;;
68144;SDS011;55400;51.824;-0.196;2022-11-13T07:39:14;13.68;;;6.60;;
68144;SDS011;55400;51.824;-0.196;2022-11-13T07:41:39;30.52;;;6.25;;
68144;SDS011;55400;51.824;-0.196;2022-11-13T07:44:04;26.65;;;6.03;;
68144;SDS011;55400;51.824;-0.196;2022-11-13T07:46:30;13.68;;;5.03;;
68144;SDS011;55400;51.824;-0.196;2022-11-13T07:48:55;10.70;;;5.82;;
68144;SDS011;55400;51.824;-0.196;2022-11-13T07:51:21;47.65;;;5.40;;
68144;SDS011;55400;51.824;-0.196;2022-11-13T07:53:46;14.45;;;5.38;;
68144;SDS011;55400;51.824;-0.196;2022-11-13T07:56:12;14.15;;;5.05;;
68144;SDS011;55400;51.824;-0.196;2022-11-13T07:58:37;13.73;;;4.93;;
68144;SDS011;55400;51.824;-0.196;2022-11-13T08:01:03;9.43;;;5.10;;
68144;SDS011;55400;51.824;-0.196;2022-11-13T08:03:30;6.75;;;4.57;;
68144;SDS011;55400;51.824;-0.196;2022-11-13T08:06:00;32.88;;;5.05;;
68144;SDS011;55400;51.824;-0.196;2022-11-13T08:08:26;68.95;;;6.07;;
68144;SDS011;55400;51.824;-0.196;2022-11-13T08:10:52;44.58;;;5.03;;
68144;SDS011;55400;51.824;-0.196;2022-11-13T08:13:17;27.67;;;4.72;;
68144;SDS011;55400;51.824;-0.196;2022-11-13T08:15:42;23.27;;;4.70;;
68144;SDS011;55400;51.824;-0.196;2022-11-13T08:18:08;23.38;;;4.18;;
68144;SDS011;55400;51.824;-0.196;2022-11-13T08:20:33;31.85;;;4.35;;
68144;SDS011;55400;51.824;-0.196;2022-11-13T08:22:59;26.80;;;4.75;;
68144;SDS011;55400;51.824;-0.196;2022-11-13T08:25:27;27.65;;;3.90;;
68144;SDS011;55400;51.824;-0.196;2022-11-13T08:27:54;9.82;;;3.72;;
68144;SDS011;55400;51.824;-0.196;2022-11-13T08:30:20;31.13;;;4.20;;
68144;SDS011;55400;51.824;-0.196;2022-11-13T08:32:46;18.95;;;4.28;;
68144;SDS011;55400;51.824;-0.196;2022-11-13T08:35:12;8.15;;;3.83;;
68144;SDS011;55400;51.824;-0.196;2022-11-13T08:37:37;15.85;;;3.58;;
68144;SDS011;55400;51.824;-0.196;2022-11-13T08:40:03;12.02;;;3.75;;
68144;SDS011;55400;51.824;-0.196;2022-11-13T08:42:29;37.00;;;3.97;;
68144;SDS011;55400;51.824;-0.196;2022-11-13T08:44:54;4.05;;;3.33;;
68144;SDS011;55400;51.824;-0.196;2022-11-13T08:47:20;10.02;;;3.28;;
68144;SDS011;55400;51.824;-0.196;2022-11-13T08:49:45;6.07;;;3.85;;
68144;SDS011;55400;51.824;-0.196;2022-11-13T08:52:10;4.15;;;3.40;;
68144;SDS011;55400;51.824;-0.196;2022-11-13T08:54:36;9.13;;;3.30;;
68144;SDS011;55400;51.824;-0.196;2022-11-13T08:57:01;11.68;;;3.40;;
68144;SDS011;55400;51.824;-0.196;2022-11-13T08:59:27;4.93;;;3.53;;
68144;SDS011;55400;51.824;-0.196;2022-11-13T09:01:52;5.80;;;4.00;;
68144;SDS011;55400;51.824;-0.196;2022-11-13T09:04:26;7.80;;;3.80;;
68144;SDS011;55400;51.824;-0.196;2022-11-13T09:06:51;5.57;;;3.58;;
68144;SDS011;55400;51.824;-0.196;2022-11-13T09:09:17;4.30;;;3.70;;
68144;SDS011;55400;51.824;-0.196;2022-11-13T09:11:44;11.18;;;3.58;;
68144;SDS011;55400;51.824;-0.196;2022-11-13T09:14:09;14.55;;;3.67;;
68144;SDS011;55400;51.824;-0.196;2022-11-13T09:16:34;6.88;;;3.30;;
68144;SDS011;55400;51.824;-0.196;2022-11-13T09:19:00;10.25;;;3.50;;
68144;SDS011;55400;51.824;-0.196;2022-11-13T09:21:26;13.00;;;3.28;;
68144;SDS011;55400;51.824;-0.196;2022-11-13T09:23:51;8.57;;;3.17;;
68144;SDS011;55400;51.824;-0.196;2022-11-13T09:26:17;13.65;;;3.42;;
68144;SDS011;55400;51.824;-0.196;2022-11-13T09:28:42;9.68;;;3.28;;
68144;SDS011;55400;51.824;-0.196;2022-11-13T09:31:08;26.60;;;3.38;;
68144;SDS011;55400;51.824;-0.196;2022-11-13T09:33:34;16.08;;;3.58;;
68144;SDS011;55400;51.824;-0.196;2022-11-13T09:36:00;9.65;;;3.40;;
68144;SDS011;55400;51.824;-0.196;2022-11-13T09:38:25;4.10;;;3.28;;
68144;SDS011;55400;51.824;-0.196;2022-11-13T09:43:23;19.38;;;3.92;;
68144;SDS011;55400;51.824;-0.196;2022-11-13T09:46:03;6.55;;;3.20;;
68144;SDS011;55400;51.824;-0.196;2022-11-13T09:48:43;4.95;;;3.58;;
68144;SDS011;55400;51.824;-0.196;2022-11-13T09:51:20;17.85;;;3.58;;
68144;SDS011;55400;51.824;-0.196;2022-11-13T09:53:48;8.15;;;3.35;;
68144;SDS011;55400;51.824;-0.196;2022-11-13T09:56:19;4.82;;;3.20;;
68144;SDS011;55400;51.824;-0.196;2022-11-13T09:59:03;27.95;;;3.40;;
68144;SDS011;55400;51.824;-0.196;2022-11-13T10:12:09;3.30;;;2.85;;
68144;SDS011;55400;51.824;-0.196;2022-11-13T10:14:39;21.90;;;3.40;;
68144;SDS011;55400;51.824;-0.196;2022-11-13T10:19:48;4.63;;;3.20;;
68144;SDS011;55400;51.824;-0.196;2022-11-13T10:25:14;11.15;;;3.70;;
68144;SDS011;55400;51.824;-0.196;2022-11-13T10:27:47;6.75;;;2.85;;
68144;SDS011;55400;51.824;-0.196;2022-11-13T10:30:17;3.80;;;2.95;;
68144;SDS011;55400;51.824;-0.196;2022-11-13T10:32:43;7.63;;;3.53;;
68144;SDS011;55400;51.824;-0.196;2022-11-13T10:35:28;14.07;;;3.65;;
68144;SDS011;55400;51.824;-0.196;2022-11-13T10:41:15;5.20;;;3.55;;
68144;SDS011;55400;51.824;-0.196;2022-11-13T10:43:51;4.75;;;3.92;;
68144;SDS011;55400;51.824;-0.196;2022-11-13T10:46:22;8.32;;;3.72;;
68144;SDS011;55400;51.824;-0.196;2022-11-13T10:48:49;3.97;;;3.60;;
68144;SDS011;55400;51.824;-0.196;2022-11-13T10:51:23;4.88;;;3.67;;
68144;SDS011;55400;51.824;-0.196;2022-11-13T10:53:57;8.98;;;4.72;;
68144;SDS011;55400;51.824;-0.196;2022-11-13T10:56:30;4.70;;;3.78;;
68144;SDS011;55400;51.824;-0.196;2022-11-13T10:59:17;5.50;;;4.15;;
68144;SDS011;55400;51.824;-0.196;2022-11-13T11:01:43;5.68;;;4.30;;
68144;SDS011;55400;51.824;-0.196;2022-11-13T11:04:11;9.63;;;4.50;;
68144;SDS011;55400;51.824;-0.196;2022-11-13T11:06:43;6.63;;;4.53;;
68144;SDS011;55400;51.824;-0.196;2022-11-13T11:11:37;6.72;;;4.90;;
68144;SDS011;55400;51.824;-0.196;2022-11-13T11:14:25;8.20;;;4.85;;
68144;SDS011;55400;51.824;-0.196;2022-11-13T11:16:56;6.28;;;4.35;;
68144;SDS011;55400;51.824;-0.196;2022-11-13T11:21:53;7.85;;;5.03;;
68144;SDS011;55400;51.824;-0.196;2022-11-13T11:24:32;10.90;;;4.72;;
68144;SDS011;55400;51.824;-0.196;2022-11-13T11:27:03;13.02;;;5.32;;
68144;SDS011;55400;51.824;-0.196;2022-11-13T11:29:40;6.78;;;4.50;;
68144;SDS011;55400;51.824;-0.196;2022-11-13T11:32:22;6.13;;;4.57;;
68144;SDS011;55400;51.824;-0.196;2022-11-13T11:35:09;7.00;;;5.07;;
68144;SDS011;55400;51.824;-0.196;2022-11-13T11:38:02;7.40;;;5.03;;
68144;SDS011;55400;51.824;-0.196;2022-11-13T11:40:35;6.82;;;5.40;;
68144;SDS011;55400;51.824;-0.196;2022-11-13T11:43:17;7.65;;;4.97;;
68144;SDS011;55400;51.824;-0.196;2022-11-13T11:45:47;8.65;;;4.95;;
68144;SDS011;55400;51.824;-0.196;2022-11-13T11:48:17;9.32;;;5.30;;
68144;SDS011;55400;51.824;-0.196;2022-11-13T11:56:19;6.22;;;4.57;;
68144;SDS011;55400;51.824;-0.196;2022-11-13T12:13:01;5.85;;;4.68;;
68144;SDS011;55400;51.824;-0.196;2022-11-13T12:15:38;5.72;;;4.88;;
68144;SDS011;55400;51.824;-0.196;2022-11-13T12:18:26;9.98;;;6.13;;
68144;SDS011;55400;51.824;-0.196;2022-11-13T12:21:10;27.50;;;15.63;;
68144;SDS011;55400;51.824;-0.196;2022-11-13T12:31:36;12.13;;;4.45;;
68144;SDS011;55400;51.824;-0.196;2022-11-13T12:36:43;8.10;;;4.63;;
68144;SDS011;55400;51.824;-0.196;2022-11-13T12:42:00;6.72;;;4.75;;
68144;SDS011;55400;51.824;-0.196;2022-11-13T12:44:41;8.63;;;5.57;;
68144;SDS011;55400;51.824;-0.196;2022-11-13T12:47:14;6.55;;;5.35;;
68144;SDS011;55400;51.824;-0.196;2022-11-13T12:49:41;7.85;;;5.50;;
68144;SDS011;55400;51.824;-0.196;2022-11-13T12:52:17;9.15;;;5.80;;
68144;SDS011;55400;51.824;-0.196;2022-11-13T12:54:46;8.23;;;5.63;;
68144;SDS011;55400;51.824;-0.196;2022-11-13T12:59:38;7.18;;;5.22;;
68144;SDS011;55400;51.824;-0.196;2022-11-13T13:16:03;9.50;;;6.15;;
68144;SDS011;55400;51.824;-0.196;2022-11-13T13:18:32;9.48;;;5.43;;
68144;SDS011;55400;51.824;-0.196;2022-11-13T13:23:38;8.23;;;5.45;;
68144;SDS011;55400;51.824;-0.196;2022-11-13T13:26:24;8.35;;;6.03;;
68144;SDS011;55400;51.824;-0.196;2022-11-13T13:42:48;10.27;;;6.00;;
68144;SDS011;55400;51.824;-0.196;2022-11-13T13:48:24;10.25;;;6.70;;
68144;SDS011;55400;51.824;-0.196;2022-11-13T13:50:52;9.55;;;5.88;;
68144;SDS011;55400;51.824;-0.196;2022-11-13T13:53:26;9.38;;;6.28;;
68144;SDS011;55400;51.824;-0.196;2022-11-13T13:55:55;14.90;;;6.00;;
68144;SDS011;55400;51.824;-0.196;2022-11-13T13:58:55;9.93;;;5.45;;
68144;SDS011;55400;51.824;-0.196;2022-11-13T14:01:15;9.18;;;5.75;;
68144;SDS011;55400;51.824;-0.196;2022-11-13T14:04:09;8.98;;;6.75;;
68144;SDS011;55400;51.824;-0.196;2022-11-13T14:06:46;7.65;;;5.53;;
68144;SDS011;55400;51.824;-0.196;2022-11-13T14:09:19;9.00;;;6.22;;
68144;SDS011;55400;51.824;-0.196;2022-11-13T14:11:56;11.25;;;5.45;;
68144;SDS011;55400;51.824;-0.196;2022-11-13T14:14:26;8.25;;;5.18;;
68144;SDS011;55400;51.824;-0.196;2022-11-13T14:16:53;8.98;;;5.93;;
68144;SDS011;55400;51.824;-0.196;2022-11-13T14:19:20;11.63;;;6.45;;
68144;SDS011;55400;51.824;-0.196;2022-11-13T14:21:46;8.20;;;5.68;;
68144;SDS011;55400;51.824;-0.196;2022-11-13T14:24:20;10.48;;;5.70;;
68144;SDS011;55400;51.824;-0.196;2022-11-13T14:26:52;10.63;;;6.63;;
68144;SDS011;55400;51.824;-0.196;2022-11-13T14:29:24;8.25;;;5.75;;
68144;SDS011;55400;51.824;-0.196;2022-11-13T14:32:02;10.52;;;6.30;;
68144;SDS011;55400;51.824;-0.196;2022-11-13T14:34:30;10.10;;;6.07;;
68144;SDS011;55400;51.824;-0.196;2022-11-13T14:37:04;10.90;;;6.93;;
68144;SDS011;55400;51.824;-0.196;2022-11-13T14:39:36;12.05;;;6.72;;
68144;SDS011;55400;51.824;-0.196;2022-11-13T14:42:01;9.55;;;6.95;;
68144;SDS011;55400;51.824;-0.196;2022-11-13T14:44:31;21.48;;;9.68;;
68144;SDS011;55400;51.824;-0.196;2022-11-13T14:47:01;12.95;;;7.50;;
68144;SDS011;55400;51.824;-0.196;2022-11-13T14:49:30;15.88;;;7.15;;
68144;SDS011;55400;51.824;-0.196;2022-11-13T14:51:58;15.25;;;8.55;;
68144;SDS011;55400;51.824;-0.196;2022-11-13T14:54:35;13.27;;;7.25;;
68144;SDS011;55400;51.824;-0.196;2022-11-13T14:57:05;11.70;;;6.78;;
68144;SDS011;55400;51.824;-0.196;2022-11-13T14:59:32;13.80;;;7.72;;
68144;SDS011;55400;51.824;-0.196;2022-11-13T15:01:58;12.93;;;8.13;;
68144;SDS011;55400;51.824;-0.196;2022-11-13T15:04:23;14.93;;;7.45;;
68144;SDS011;55400;51.824;-0.196;2022-11-13T15:06:49;18.88;;;7.20;;
68144;SDS011;55400;51.824;-0.196;2022-11-13T15:09:19;10.32;;;7.28;;
68144;SDS011;55400;51.824;-0.196;2022-11-13T15:11:46;12.50;;;7.25;;
68144;SDS011;55400;51.824;-0.196;2022-11-13T15:14:12;9.82;;;7.00;;
68144;SDS011;55400;51.824;-0.196;2022-11-13T15:16:39;10.52;;;7.10;;
68144;SDS011;55400;51.824;-0.196;2022-11-13T15:19:12;12.38;;;7.65;;
68144;SDS011;55400;51.824;-0.196;2022-11-13T15:21:42;14.80;;;7.85;;
68144;SDS011;55400;51.824;-0.196;2022-11-13T15:24:09;14.40;;;8.20;;
68144;SDS011;55400;51.824;-0.196;2022-11-13T15:26:36;15.60;;;8.60;;
68144;SDS011;55400;51.824;-0.196;2022-11-13T15:29:01;12.38;;;7.32;;
68144;SDS011;55400;51.824;-0.196;2022-11-13T15:31:34;10.25;;;7.00;;
68144;SDS011;55400;51.824;-0.196;2022-11-13T15:34:01;13.07;;;8.25;;
68144;SDS011;55400;51.824;-0.196;2022-11-13T15:36:27;12.13;;;7.43;;
68144;SDS011;55400;51.824;-0.196;2022-11-13T15:38:53;15.73;;;8.23;;
68144;SDS011;55400;51.824;-0.196;2022-11-13T15:41:19;16.50;;;7.65;;
68144;SDS011;55400;51.824;-0.196;2022-11-13T15:43:47;14.85;;;8.32;;
68144;SDS011;55400;51.824;-0.196;2022-11-13T15:46:15;12.40;;;7.25;;
68144;SDS011;55400;51.824;-0.196;2022-11-13T15:48:45;12.93;;;7.68;;
68144;SDS011;55400;51.824;-0.196;2022-11-13T15:51:32;13.52;;;8.40;;
68144;SDS011;55400;51.824;-0.196;2022-11-13T15:54:27;15.57;;;8.88;;
68144;SDS011;55400;51.824;-0.196;2022-11-13T15:56:55;14.20;;;8.55;;
68144;SDS011;55400;51.824;-0.196;2022-11-13T15:59:20;14.02;;;8.32;;
68144;SDS011;55400;51.824;-0.196;2022-11-13T16:01:45;13.07;;;7.47;;
68144;SDS011;55400;51.824;-0.196;2022-11-13T16:04:11;15.13;;;8.40;;
68144;SDS011;55400;51.824;-0.196;2022-11-13T16:06:40;15.23;;;8.15;;
68144;SDS011;55400;51.824;-0.196;2022-11-13T16:09:13;13.38;;;8.82;;
68144;SDS011;55400;51.824;-0.196;2022-11-13T16:11:39;13.90;;;7.97;;
68144;SDS011;55400;51.824;-0.196;2022-11-13T16:14:06;17.70;;;9.45;;
68144;SDS011;55400;51.824;-0.196;2022-11-13T16:16:33;16.52;;;8.43;;
68144;SDS011;55400;51.824;-0.196;2022-11-13T16:19:00;20.42;;;9.65;;
68144;SDS011;55400;51.824;-0.196;2022-11-13T16:21:26;18.35;;;8.95;;